Time;durP1;ratioP1;P1;durP2;ratioP2;P2;SDS_P1;SDS_P2;PMS_P1;PMS_P2;Temp;Humidity;BMP_temperature;BMP_pressure;BME280_temperature;BME280_humidity;BME280_pressure;Samples;Min_cycle;Max_cycle;Signal;HPM_P1;HPM_P2
2022/10/17 00:00:33;;;;;;;0.00;0.00;;;;;;;12.81;100.00;100771.94;5011196;28;20744;-74
2022/10/17 00:02:58;;;;;;;1.40;1.40;;;;;;;12.85;100.00;100769.38;5014269;28;20219;-73
2022/10/17 00:05:24;;;;;;;0.00;0.00;;;;;;;12.77;100.00;100766.28;5015098;28;20187;-73
2022/10/17 00:07:50;;;;;;;0.00;0.00;;;;;;;12.96;100.00;100763.28;5034030;28;20191;-74
2022/10/17 00:10:16;;;;;;;0.00;0.00;;;;;;;13.08;100.00;100774.44;5016339;28;20427;-74
2022/10/17 00:12:41;;;;;;;0.00;0.00;;;;;;;13.20;100.00;100764.81;5034574;28;20262;-74
2022/10/17 00:15:07;;;;;;;0.00;0.00;;;;;;;13.19;100.00;100753.03;5034607;28;20314;-74
2022/10/17 00:17:33;;;;;;;0.00;0.00;;;;;;;13.27;100.00;100759.63;5034140;28;20266;-74
2022/10/17 00:19:59;;;;;;;0.00;0.00;;;;;;;12.99;100.00;100764.56;5034614;28;20723;-74
2022/10/17 00:22:25;;;;;;;0.00;0.00;;;;;;;13.21;100.00;100769.16;5034336;28;20206;-74
2022/10/17 00:24:51;;;;;;;0.00;0.00;;;;;;;13.11;100.00;100764.75;5034370;28;20175;-73
2022/10/17 00:27:16;;;;;;;0.00;0.00;;;;;;;13.12;100.00;100763.63;5034819;28;20183;-74
2022/10/17 00:29:41;;;;;;;0.27;0.27;;;;;;;13.05;100.00;100749.59;5034544;28;20255;-74
2022/10/17 00:32:07;;;;;;;0.00;0.00;;;;;;;13.21;100.00;100747.22;5034297;28;20241;-74
2022/10/17 00:34:32;;;;;;;0.00;0.00;;;;;;;13.44;100.00;100742.38;5016418;28;20618;-74
2022/10/17 00:36:57;;;;;;;0.00;0.00;;;;;;;13.56;100.00;100739.78;5034012;28;20238;-74
2022/10/17 00:39:23;;;;;;;0.00;0.00;;;;;;;13.74;100.00;100732.31;5033985;28;20267;-73
2022/10/17 00:41:48;;;;;;;0.00;0.00;;;;;;;13.77;100.00;100738.00;5033816;28;20215;-73
2022/10/17 00:44:29;;;;;;;0.00;0.00;;;;;;;13.90;100.00;100734.25;5033901;28;20172;-73
2022/10/17 00:47:01;;;;;;;0.00;0.00;;;;;;;13.91;100.00;100741.38;5033680;28;20175;-72
2022/10/17 00:49:29;;;;;;;0.40;0.40;;;;;;;13.94;100.00;100740.69;5033744;28;20180;-74
2022/10/17 00:52:00;;;;;;;0.00;0.00;;;;;;;13.87;100.00;100734.09;5033586;28;20168;-73
2022/10/17 00:54:31;;;;;;;0.00;0.00;;;;;;;13.83;100.00;100738.63;5033688;28;20207;-73
2022/10/17 00:56:57;;;;;;;0.10;0.10;;;;;;;13.83;100.00;100744.13;5033486;28;20162;-73
2022/10/17 00:59:24;;;;;;;0.00;0.00;;;;;;;13.82;100.00;100745.25;5033380;28;20172;-74
2022/10/17 01:02:08;;;;;;;0.20;0.20;;;;;;;13.81;100.00;100744.44;5033409;28;20204;-74
2022/10/17 01:04:36;;;;;;;0.10;0.10;;;;;;;13.79;100.00;100746.72;5033340;28;20180;-73
2022/10/17 01:07:02;;;;;;;0.00;0.00;;;;;;;13.72;100.00;100749.13;5033283;28;20560;-74
2022/10/17 01:09:29;;;;;;;0.00;0.00;;;;;;;13.74;100.00;100752.34;5033478;28;20172;-73
2022/10/17 01:12:06;;;;;;;0.20;0.20;;;;;;;13.69;100.00;100749.78;5033165;28;20594;-74
2022/10/17 01:14:44;;;;;;;0.40;0.40;;;;;;;13.61;100.00;100754.16;5033603;28;20183;-73
2022/10/17 01:17:42;;;;;;;0.10;0.10;;;;;;;13.57;100.00;100747.69;5015397;28;20645;-74
2022/10/17 01:20:47;;;;;;;0.10;0.10;;;;;;;13.57;100.00;100755.13;5032444;28;20220;-73
2022/10/17 01:23:27;;;;;;;0.00;0.00;;;;;;;13.57;100.00;100750.44;5033387;28;20230;-73
2022/10/17 01:26:01;;;;;;;0.00;0.00;;;;;;;13.62;100.00;100744.00;5032860;28;20265;-74
2022/10/17 01:28:41;;;;;;;0.00;0.00;;;;;;;13.63;100.00;100740.91;5033011;28;20184;-73
2022/10/17 01:31:18;;;;;;;0.00;0.00;;;;;;;13.63;100.00;100735.44;5032839;28;20639;-74
2022/10/17 01:33:50;;;;;;;0.00;0.00;;;;;;;13.67;100.00;100735.56;5033012;28;20182;-74
2022/10/17 01:36:21;;;;;;;0.00;0.00;;;;;;;13.78;100.00;100736.06;5032794;28;20631;-73
2022/10/17 01:38:51;;;;;;;0.00;0.00;;;;;;;13.79;100.00;100732.19;5032837;28;20757;-74
2022/10/17 01:41:33;;;;;;;0.00;0.00;;;;;;;13.86;100.00;100725.03;5032710;28;20184;-73
2022/10/17 01:44:07;;;;;;;0.00;0.00;;;;;;;13.85;100.00;100726.16;5032756;28;20186;-73
2022/10/17 01:46:38;;;;;;;0.00;0.00;;;;;;;13.91;100.00;100722.13;5032574;28;20697;-73
2022/10/17 01:49:07;;;;;;;0.00;0.00;;;;;;;13.92;100.00;100717.44;5032728;28;20183;-74
2022/10/17 01:51:42;;;;;;;0.00;0.00;;;;;;;13.90;100.00;100720.53;5032667;28;20216;-73
2022/10/17 01:54:13;;;;;;;0.00;0.00;;;;;;;13.84;100.00;100723.75;5032625;28;20389;-74
2022/10/17 01:56:41;;;;;;;0.10;0.10;;;;;;;13.87;100.00;100718.41;5031840;28;20176;-73
2022/10/17 01:59:13;;;;;;;0.00;0.00;;;;;;;13.91;100.00;100718.59;5031995;28;20179;-73
2022/10/17 02:01:41;;;;;;;0.00;0.00;;;;;;;13.95;100.00;100706.59;5031881;28;20230;-74
2022/10/17 02:04:08;;;;;;;0.00;0.00;;;;;;;13.86;100.00;100707.75;5031799;28;20222;-73
2022/10/17 02:06:35;;;;;;;0.00;0.00;;;;;;;13.88;100.00;100713.72;5031546;28;20250;-74
2022/10/17 02:09:01;;;;;;;0.00;0.00;;;;;;;13.92;100.00;100696.28;5031833;28;20695;-74
2022/10/17 02:11:27;;;;;;;0.00;0.00;;;;;;;14.00;100.00;100700.13;5013732;28;20229;-74
2022/10/17 02:14:17;;;;;;;0.00;0.00;;;;;;;14.05;100.00;100694.47;5031749;28;20176;-74
2022/10/17 02:16:50;;;;;;;0.00;0.00;;;;;;;14.06;100.00;100698.81;5015402;28;20230;-74
2022/10/17 02:19:48;;;;;;;0.00;0.00;;;;;;;14.09;100.00;100689.91;5012084;28;20176;-74
2022/10/17 02:22:29;;;;;;;0.00;0.00;;;;;;;14.11;100.00;100686.84;5012199;28;20209;-73
2022/10/17 02:25:20;;;;;;;0.00;0.00;;;;;;;14.01;100.00;100685.25;5011403;28;20227;-74
2022/10/17 02:27:57;;;;;;;0.00;0.00;;;;;;;14.08;100.00;100687.50;5012050;28;20187;-74
2022/10/17 02:30:30;;;;;;;0.00;0.00;;;;;;;14.08;100.00;100677.31;5012105;28;20176;-74
2022/10/17 02:33:00;;;;;;;0.00;0.00;;;;;;;14.18;100.00;100685.19;5012155;28;20196;-74
2022/10/17 02:35:30;;;;;;;0.00;0.00;;;;;;;14.22;100.00;100679.84;5012132;28;20283;-74
2022/10/17 02:37:57;;;;;;;0.00;0.00;;;;;;;14.21;100.00;100673.56;5012105;28;20262;-74
2022/10/17 02:40:23;;;;;;;0.00;0.00;;;;;;;14.23;100.00;100675.97;5011934;28;20179;-74
2022/10/17 02:42:51;;;;;;;0.00;0.00;;;;;;;14.22;100.00;100677.09;5027209;28;20228;-74
2022/10/17 02:45:17;;;;;;;0.00;0.00;;;;;;;14.26;100.00;100683.53;5011892;28;20260;-74
2022/10/17 02:47:54;;;;;;;0.00;0.00;;;;;;;14.07;100.00;100691.38;5011795;28;20255;-74
2022/10/17 02:50:26;;;;;;;0.00;0.00;;;;;;;14.07;100.00;100686.69;5011790;28;20269;-74
2022/10/17 02:52:57;;;;;;;0.00;0.00;;;;;;;13.92;100.00;100689.97;5029763;28;20171;-74
2022/10/17 02:55:34;;;;;;;0.00;0.00;;;;;;;13.79;100.00;100700.03;5031380;28;20168;-74
2022/10/17 02:58:05;;;;;;;0.10;0.10;;;;;;;13.73;100.00;100692.28;5031435;28;20195;-74
2022/10/17 03:00:31;;;;;;;0.20;0.20;;;;;;;13.30;100.00;100695.88;5031292;28;20544;-74
2022/10/17 03:02:56;;;;;;;0.00;0.00;;;;;;;13.29;100.00;100702.50;5031120;28;20239;-73
2022/10/17 03:05:24;;;;;;;0.00;0.00;;;;;;;13.18;100.00;100703.94;5031298;28;20175;-74
2022/10/17 03:07:49;;;;;;;0.00;0.00;;;;;;;13.09;100.00;100696.50;5031132;28;20485;-73
2022/10/17 03:10:15;;;;;;;0.00;0.00;;;;;;;13.10;100.00;100689.06;5030815;28;20175;-74
2022/10/17 03:12:40;;;;;;;0.00;0.00;;;;;;;13.30;100.00;100693.94;5013484;28;20229;-73
2022/10/17 03:15:06;;;;;;;0.00;0.00;;;;;;;13.51;100.00;100679.56;5031448;28;20231;-74
2022/10/17 03:17:32;;;;;;;0.00;0.00;;;;;;;13.60;100.00;100678.44;5030920;28;20259;-74
2022/10/17 03:19:57;;;;;;;0.00;0.00;;;;;;;13.64;100.00;100679.38;5029730;28;20267;-74
2022/10/17 03:22:23;;;;;;;0.13;0.13;;;;;;;13.70;100.00;100674.50;5030933;28;20206;-73
2022/10/17 03:24:48;;;;;;;0.00;0.00;;;;;;;13.80;100.00;100684.34;5030883;28;20187;-74
2022/10/17 03:27:14;;;;;;;0.00;0.00;;;;;;;13.90;100.00;100686.75;5030751;28;20179;-74
2022/10/17 03:29:39;;;;;;;0.00;0.00;;;;;;;14.02;100.00;100681.38;5030397;28;20182;-74
2022/10/17 03:32:04;;;;;;;0.00;0.00;;;;;;;14.02;100.00;100681.38;5030574;28;20184;-74
2022/10/17 03:34:30;;;;;;;0.00;0.00;;;;;;;14.07;100.00;100681.19;5030451;28;20584;-74
2022/10/17 03:36:55;;;;;;;0.00;0.00;;;;;;;14.14;100.00;100684.22;5030059;28;20214;-73
2022/10/17 03:39:20;;;;;;;0.20;0.10;;;;;;;14.29;100.00;100675.44;5030115;28;20171;-73
2022/10/17 03:41:45;;;;;;;1.93;0.63;;;;;;;14.38;100.00;100683.66;5030201;28;20219;-72
2022/10/17 03:44:11;;;;;;;0.00;0.00;;;;;;;14.41;100.00;100687.69;5030335;28;20442;-73
2022/10/17 03:46:36;;;;;;;0.00;0.00;;;;;;;14.51;100.00;100688.16;5030214;28;20659;-74
2022/10/17 03:49:02;;;;;;;0.37;0.37;;;;;;;14.58;100.00;100691.16;5030487;28;20176;-73
2022/10/17 03:51:27;;;;;;;0.33;0.33;;;;;;;14.64;100.00;100682.75;5030398;28;20254;-73
2022/10/17 03:53:52;;;;;;;0.00;0.00;;;;;;;14.59;100.00;100687.28;5030457;28;20180;-74
2022/10/17 03:56:21;;;;;;;0.00;0.00;;;;;;;14.68;100.00;100672.69;5029997;28;20435;-74
2022/10/17 03:58:46;;;;;;;0.00;0.00;;;;;;;14.56;100.00;100676.13;5012483;28;20180;-73
2022/10/17 04:01:13;;;;;;;0.00;0.00;;;;;;;14.58;100.00;100682.91;5030286;28;20533;-73
2022/10/17 04:03:39;;;;;;;0.00;0.00;;;;;;;14.61;100.00;100694.38;5029877;28;20216;-74
2022/10/17 04:06:05;;;;;;;0.10;0.10;;;;;;;14.64;100.00;100691.78;5029819;28;20172;-74
2022/10/17 04:08:32;;;;;;;0.00;0.00;;;;;;;14.73;100.00;100695.28;5029899;28;20172;-74
2022/10/17 04:10:58;;;;;;;0.00;0.00;;;;;;;14.75;100.00;100700.44;5029563;28;20621;-74
2022/10/17 04:13:24;;;;;;;0.00;0.00;;;;;;;14.69;100.00;100704.53;5030035;28;20648;-73
2022/10/17 04:16:00;;;;;;;0.00;0.00;;;;;;;14.68;100.00;100698.22;5029761;28;20176;-74
2022/10/17 04:18:26;;;;;;;0.00;0.00;;;;;;;14.73;100.00;100700.78;5030007;28;20178;-73
2022/10/17 04:20:51;;;;;;;0.00;0.00;;;;;;;14.77;100.00;100710.00;5029779;28;20180;-74
2022/10/17 04:23:17;;;;;;;0.00;0.00;;;;;;;14.77;100.00;100703.69;5029892;28;20295;-74
2022/10/17 04:25:43;;;;;;;0.27;0.27;;;;;;;14.76;100.00;100711.16;5029950;28;20533;-74
2022/10/17 04:28:08;;;;;;;0.00;0.00;;;;;;;14.77;100.00;100707.25;5029819;28;20198;-73
2022/10/17 04:30:34;;;;;;;0.00;0.00;;;;;;;14.73;100.00;100714.53;5029814;28;20187;-74
2022/10/17 04:32:59;;;;;;;0.00;0.00;;;;;;;14.72;100.00;100714.88;5029880;28;20176;-74
2022/10/17 04:35:24;;;;;;;0.00;0.00;;;;;;;14.71;100.00;100722.31;5029773;28;20203;-74
2022/10/17 04:37:50;;;;;;;0.00;0.00;;;;;;;14.72;100.00;100714.88;5029793;28;20180;-74
2022/10/17 04:40:15;;;;;;;0.00;0.00;;;;;;;14.79;100.00;100723.41;5029654;28;20690;-73
2022/10/17 04:42:40;;;;;;;0.13;0.13;;;;;;;14.78;100.00;100711.59;5030060;28;20298;-74
2022/10/17 04:45:06;;;;;;;0.00;0.00;;;;;;;14.85;100.00;100725.63;5029739;28;20182;-73
2022/10/17 04:47:32;;;;;;;0.67;0.10;;;;;;;14.86;100.00;100712.69;5030159;28;20187;-74
2022/10/17 04:49:57;;;;;;;0.27;0.00;;;;;;;14.84;100.00;100726.78;5033242;28;20303;-73
2022/10/17 04:52:23;;;;;;;0.00;0.00;;;;;;;14.87;100.00;100731.59;5033198;28;20237;-74
2022/10/17 04:54:49;;;;;;;5.10;1.03;;;;;;;14.91;100.00;100725.47;5033198;28;20178;-74
2022/10/17 04:57:14;;;;;;;0.43;0.43;;;;;;;14.97;100.00;100733.16;5032925;28;20169;-74
2022/10/17 04:59:40;;;;;;;1.03;0.53;;;;;;;15.10;100.00;100731.31;5033079;28;20191;-73
2022/10/17 05:02:05;;;;;;;0.00;0.00;;;;;;;15.14;100.00;100727.53;5033110;28;20229;-73
2022/10/17 05:04:30;;;;;;;0.27;0.27;;;;;;;15.18;100.00;100738.69;5032854;28;20274;-74
2022/10/17 05:06:55;;;;;;;0.00;0.00;;;;;;;15.30;100.00;100740.69;5032756;28;20595;-73
2022/10/17 05:09:21;;;;;;;0.70;0.40;;;;;;;15.34;100.00;100739.72;5032878;28;20172;-73
2022/10/17 05:11:46;;;;;;;0.10;0.10;;;;;;;15.36;100.00;100742.13;5032570;28;20652;-73
2022/10/17 05:14:11;;;;;;;0.17;0.17;;;;;;;15.34;100.00;100736.16;5032990;28;20652;-73
2022/10/17 05:16:37;;;;;;;0.00;0.00;;;;;;;15.32;100.00;100736.47;5032375;28;20186;-74
2022/10/17 05:19:02;;;;;;;0.73;0.73;;;;;;;15.37;100.00;100739.03;5032819;28;20583;-73
2022/10/17 05:21:29;;;;;;;0.00;0.00;;;;;;;15.30;100.00;100733.25;5032541;28;20186;-73
2022/10/17 05:23:54;;;;;;;0.00;0.00;;;;;;;15.26;100.00;100735.06;5032792;28;20647;-74
2022/10/17 05:26:21;;;;;;;0.10;0.10;;;;;;;15.31;100.00;100742.31;5032498;28;20180;-74
2022/10/17 05:28:46;;;;;;;0.30;0.30;;;;;;;15.26;100.00;100729.56;5032638;28;20188;-74
2022/10/17 05:31:12;;;;;;;5.30;0.47;;;;;;;15.19;100.00;100734.81;5032397;28;20180;-74
2022/10/17 05:33:38;;;;;;;0.00;0.00;;;;;;;15.20;100.00;100730.91;5032534;28;20628;-74
2022/10/17 05:36:05;;;;;;;0.00;0.00;;;;;;;15.27;100.00;100725.66;5032130;28;20176;-74
2022/10/17 05:38:30;;;;;;;0.33;0.33;;;;;;;15.30;100.00;100743.44;5032526;28;20212;-73
2022/10/17 05:41:00;;;;;;;0.10;0.10;;;;;;;15.40;100.00;100748.56;5032264;28;20647;-73
2022/10/17 05:43:27;;;;;;;0.00;0.00;;;;;;;15.55;100.00;100744.38;5008649;28;20703;-72
2022/10/17 05:45:53;;;;;;;0.30;0.30;;;;;;;15.58;100.00;100751.97;5017860;28;20192;-77
2022/10/17 05:48:18;;;;;;;0.00;0.00;;;;;;;15.68;100.00;100757.09;5017644;28;20484;-75
2022/10/17 05:50:44;;;;;;;0.00;0.00;;;;;;;15.67;100.00;100756.31;5017956;28;20176;-74
2022/10/17 05:53:09;;;;;;;0.40;0.40;;;;;;;15.55;100.00;100750.69;5032554;28;20234;-74
2022/10/17 05:55:34;;;;;;;0.00;0.00;;;;;;;15.60;100.00;100753.28;5032576;28;20176;-74
2022/10/17 05:58:00;;;;;;;0.00;0.00;;;;;;;15.62;100.00;100756.53;5032372;28;20172;-74
2022/10/17 06:00:26;;;;;;;0.00;0.00;;;;;;;15.54;100.00;100751.03;5031259;28;20192;-74
2022/10/17 06:02:52;;;;;;;0.20;0.20;;;;;;;15.48;100.00;100751.25;5032273;28;20667;-75
2022/10/17 06:05:18;;;;;;;0.00;0.00;;;;;;;15.47;100.00;100751.56;5032482;28;20196;-74
2022/10/17 06:07:43;;;;;;;0.20;0.20;;;;;;;15.38;100.00;100759.13;5016906;28;20818;-74
2022/10/17 06:10:11;;;;;;;0.00;0.00;;;;;;;15.48;100.00;100754.00;5012498;28;20177;-73
2022/10/17 06:12:37;;;;;;;0.00;0.00;;;;;;;15.41;100.00;100759.25;5017130;28;20490;-73
2022/10/17 06:15:06;;;;;;;0.00;0.00;;;;;;;15.41;100.00;100753.72;5002881;28;20173;-75
2022/10/17 06:17:31;;;;;;;0.80;0.50;;;;;;;15.38;100.00;100753.59;5020133;28;20184;-73
2022/10/17 06:19:56;;;;;;;0.00;0.00;;;;;;;15.42;100.00;100755.34;5017089;28;20223;-74
2022/10/17 06:22:22;;;;;;;0.00;0.00;;;;;;;15.50;100.00;100767.44;5012285;28;20200;-74
2022/10/17 06:24:47;;;;;;;0.00;0.00;;;;;;;15.51;100.00;100765.50;5012012;28;20593;-74
2022/10/17 06:27:12;;;;;;;0.17;0.17;;;;;;;15.58;100.00;100769.31;5026178;28;20238;-74
2022/10/17 06:29:38;;;;;;;0.00;0.00;;;;;;;15.66;100.00;100768.47;5031663;28;20176;-73
2022/10/17 06:32:04;;;;;;;0.00;0.00;;;;;;;15.73;100.00;100770.66;5031729;28;20335;-74
2022/10/17 06:34:29;;;;;;;0.00;0.00;;;;;;;15.64;100.00;100767.19;5032961;28;20182;-70
2022/10/17 06:36:54;;;;;;;0.83;0.57;;;;;;;15.81;100.00;100772.53;5031790;28;20215;-70
2022/10/17 06:39:19;;;;;;;0.00;0.00;;;;;;;15.87;100.00;100776.69;5031559;28;20172;-71
2022/10/17 06:41:45;;;;;;;0.00;0.00;;;;;;;15.97;100.00;100772.72;5031545;28;20207;-70
2022/10/17 06:44:11;;;;;;;0.40;0.40;;;;;;;16.00;100.00;100781.09;5016984;28;20208;-70
2022/10/17 06:46:38;;;;;;;0.07;0.07;;;;;;;16.14;100.00;100782.75;5011901;28;20273;-70
2022/10/17 06:49:04;;;;;;;0.00;0.00;;;;;;;16.17;100.00;100791.13;5011903;28;20180;-70
2022/10/17 06:51:31;;;;;;;0.27;0.27;;;;;;;16.16;100.00;100794.25;5011755;28;20234;-71
2022/10/17 06:53:58;;;;;;;0.60;0.60;;;;;;;16.22;100.00;100779.09;5011632;28;20176;-71
2022/10/17 06:56:23;;;;;;;0.00;0.00;;;;;;;16.24;100.00;100794.16;5011316;28;20535;-71
2022/10/17 06:58:50;;;;;;;0.43;0.43;;;;;;;16.31;100.00;100805.44;5011513;28;20185;-70
2022/10/17 07:01:16;;;;;;;1.37;0.70;;;;;;;16.38;100.00;100802.13;5011593;28;20643;-70
2022/10/17 07:03:42;;;;;;;0.43;0.43;;;;;;;16.42;100.00;100802.25;5011638;28;20208;-71
2022/10/17 07:06:10;;;;;;;0.30;0.30;;;;;;;16.39;100.00;100814.75;5011239;28;20520;-71
2022/10/17 07:08:35;;;;;;;0.50;0.50;;;;;;;16.36;100.00;100807.97;5011309;28;20180;-70
2022/10/17 07:11:09;;;;;;;0.30;0.30;;;;;;;16.43;100.00;100806.59;5010987;28;20759;-70
2022/10/17 07:13:34;;;;;;;4.00;0.43;;;;;;;16.52;100.00;100805.38;5011408;28;20184;-70
2022/10/17 07:16:00;;;;;;;4.90;0.80;;;;;;;16.57;100.00;100809.84;5011710;28;20758;-70
2022/10/17 07:18:26;;;;;;;1.17;1.13;;;;;;;16.64;100.00;100818.38;5011129;28;20234;-71
2022/10/17 07:20:52;;;;;;;1.87;1.17;;;;;;;16.67;100.00;100826.00;5011046;28;20184;-70
2022/10/17 07:23:18;;;;;;;0.20;0.20;;;;;;;16.72;100.00;100827.72;5011152;28;20749;-70
2022/10/17 07:25:43;;;;;;;0.27;0.27;;;;;;;16.75;100.00;100824.25;5011102;28;20259;-72
2022/10/17 07:28:08;;;;;;;0.40;0.40;;;;;;;16.74;100.00;100823.47;5011158;28;20206;-71
2022/10/17 07:30:34;;;;;;;0.10;0.10;;;;;;;16.76;100.00;100828.63;5011147;28;20183;-73
2022/10/17 07:32:59;;;;;;;3.83;0.47;;;;;;;16.80;100.00;100824.06;5011235;28;20176;-75
2022/10/17 07:35:24;;;;;;;0.40;0.40;;;;;;;16.87;99.58;100825.06;5010976;28;20647;-74
2022/10/17 07:37:49;;;;;;;2.13;1.33;;;;;;;16.94;99.66;100824.53;5026199;28;20214;-75
2022/10/17 07:40:15;;;;;;;3.87;0.90;;;;;;;17.03;99.46;100830.72;5010991;28;20262;-75
2022/10/17 07:42:40;;;;;;;0.00;0.00;;;;;;;17.16;98.50;100837.84;5011920;28;20668;-74
2022/10/17 07:45:06;;;;;;;1.83;0.97;;;;;;;17.25;97.95;100838.53;5031121;28;20189;-73
2022/10/17 07:47:34;;;;;;;1.33;0.90;;;;;;;17.32;97.23;100842.66;5030451;28;20646;-73
2022/10/17 07:50:00;;;;;;;0.00;0.00;;;;;;;17.39;96.95;100840.13;5030496;28;20172;-74
2022/10/17 07:52:25;;;;;;;0.30;0.30;;;;;;;17.44;96.13;100848.19;5030584;28;20229;-74
2022/10/17 07:54:50;;;;;;;0.10;0.10;;;;;;;17.47;96.05;100844.72;5030646;28;20206;-73
2022/10/17 07:57:16;;;;;;;0.77;0.77;;;;;;;17.46;95.55;100840.34;5030474;28;20190;-74
2022/10/17 07:59:41;;;;;;;1.10;1.10;;;;;;;17.48;95.57;100838.03;5030684;28;20179;-73
2022/10/17 08:02:17;;;;;;;0.97;0.97;;;;;;;17.49;95.00;100840.44;5030480;28;20208;-73
2022/10/17 08:04:42;;;;;;;0.00;0.00;;;;;;;17.48;94.92;100852.66;5030272;28;20191;-73
2022/10/17 08:07:07;;;;;;;0.00;0.00;;;;;;;17.46;95.20;100837.56;5030491;28;20634;-70
2022/10/17 08:09:33;;;;;;;0.20;0.20;;;;;;;17.47;95.51;100858.53;5030481;28;20179;-71
2022/10/17 08:11:58;;;;;;;0.10;0.10;;;;;;;17.46;95.31;100849.44;5030363;28;20179;-71
2022/10/17 08:14:23;;;;;;;0.57;0.57;;;;;;;17.52;94.99;100844.50;5029969;28;20230;-71
2022/10/17 08:16:48;;;;;;;0.17;0.17;;;;;;;17.57;94.64;100847.00;5029778;28;20731;-71
2022/10/17 08:19:14;;;;;;;0.20;0.20;;;;;;;17.64;93.94;100847.19;5030035;28;20186;-71
2022/10/17 08:21:40;;;;;;;0.00;0.00;;;;;;;17.70;94.10;100850.56;5030103;28;20238;-72
2022/10/17 08:24:05;;;;;;;0.47;0.47;;;;;;;17.74;93.58;100859.78;5032069;28;20225;-70
2022/10/17 08:26:30;;;;;;;0.50;0.50;;;;;;;17.82;92.76;100851.34;5015795;28;20557;-71
2022/10/17 08:28:56;;;;;;;0.60;0.60;;;;;;;17.92;92.51;100846.47;5015864;28;20175;-72
2022/10/17 08:31:22;;;;;;;0.00;0.00;;;;;;;17.95;92.15;100845.78;5033934;28;20184;-71
2022/10/17 08:33:48;;;;;;;0.00;0.00;;;;;;;18.02;91.30;100838.47;5033720;28;20657;-71
2022/10/17 08:36:16;;;;;;;0.30;0.30;;;;;;;18.03;91.54;100845.63;5033804;28;20275;-71
2022/10/17 08:38:42;;;;;;;0.77;0.77;;;;;;;18.13;90.78;100847.09;5033570;28;20172;-71
2022/10/17 08:41:24;;;;;;;1.10;1.10;;;;;;;18.25;90.61;100846.22;5033874;28;20183;-70
2022/10/17 08:43:49;;;;;;;0.40;0.40;;;;;;;18.32;88.92;100840.88;5032198;28;20235;-72
2022/10/17 08:46:14;;;;;;;0.73;0.73;;;;;;;18.37;88.94;100841.44;5033256;28;20722;-72
2022/10/17 08:48:45;;;;;;;0.47;0.47;;;;;;;18.47;88.50;100847.59;5033381;28;20176;-71
2022/10/17 08:51:22;;;;;;;6.63;1.10;;;;;;;18.53;87.44;100851.72;5033572;28;20187;-71
2022/10/17 08:54:25;;;;;;;0.53;0.53;;;;;;;18.67;87.76;100858.47;5033420;28;20233;-72
2022/10/17 08:56:54;;;;;;;2.90;1.23;;;;;;;18.75;87.68;100850.34;5001381;28;20222;-72
2022/10/17 08:59:25;;;;;;;0.00;0.00;;;;;;;18.80;87.92;100850.88;5033398;28;20164;-71
2022/10/17 09:02:28;;;;;;;0.10;0.10;;;;;;;18.85;87.31;100844.28;5033063;28;20195;-71
2022/10/17 09:05:31;;;;;;;0.40;0.40;;;;;;;18.93;88.63;100848.81;5033100;28;20189;-71
2022/10/17 09:08:16;;;;;;;0.30;0.30;;;;;;;18.93;86.46;100852.38;5032939;28;20175;-71
2022/10/17 09:11:01;;;;;;;0.00;0.00;;;;;;;18.98;86.70;100838.28;5032409;28;20172;-71
2022/10/17 09:13:36;;;;;;;0.07;0.07;;;;;;;19.00;85.86;100832.38;5015208;28;20592;-71
2022/10/17 09:16:02;;;;;;;0.47;0.47;;;;;;;19.07;86.26;100823.44;5032740;28;20382;-72
2022/10/17 09:18:35;;;;;;;0.40;0.40;;;;;;;19.14;85.10;100821.66;5032884;28;20709;-72
2022/10/17 09:21:24;;;;;;;5.80;1.00;;;;;;;19.17;84.34;100839.50;5033015;28;20267;-72
2022/10/17 09:23:53;;;;;;;0.00;0.00;;;;;;;19.16;85.08;100840.66;5032803;28;20207;-72
2022/10/17 09:26:19;;;;;;;0.10;0.10;;;;;;;19.24;85.20;100834.13;5032645;28;20172;-72
2022/10/17 09:28:54;;;;;;;0.00;0.00;;;;;;;19.30;84.34;100830.72;5032853;28;20214;-71
2022/10/17 09:31:27;;;;;;;0.00;0.00;;;;;;;19.35;84.02;100835.19;5032539;28;20638;-71
2022/10/17 09:33:56;;;;;;;0.00;0.00;;;;;;;19.37;83.96;100829.28;5032569;28;20203;-71
2022/10/17 09:36:23;;;;;;;0.37;0.37;;;;;;;19.42;83.43;100832.59;5032357;28;20267;-71
2022/10/17 09:39:11;;;;;;;0.20;0.20;;;;;;;19.52;82.85;100828.41;5032415;28;20186;-71
2022/10/17 09:41:45;;;;;;;0.20;0.20;;;;;;;19.47;82.12;100831.47;5022621;28;20187;-71
2022/10/17 09:44:13;;;;;;;0.00;0.00;;;;;;;19.43;83.11;100828.63;5032342;28;20183;-71
2022/10/17 09:46:39;;;;;;;0.10;0.10;;;;;;;19.58;82.55;100832.56;5031937;28;20184;-71
2022/10/17 09:49:13;;;;;;;0.00;0.00;;;;;;;19.72;82.15;100834.84;5032309;28;20267;-71
2022/10/17 09:51:39;;;;;;;0.00;0.00;;;;;;;19.73;81.25;100840.03;5019498;28;20191;-71
2022/10/17 09:54:16;;;;;;;0.50;0.50;;;;;;;19.79;80.54;100840.53;5012612;28;20180;-71
2022/10/17 09:57:02;;;;;;;0.00;0.00;;;;;;;19.88;80.53;100847.47;5012880;28;20168;-71
2022/10/17 09:59:40;;;;;;;0.00;0.00;;;;;;;19.96;81.00;100842.84;5012398;28;20216;-71
2022/10/17 10:02:13;;;;;;;0.10;0.10;;;;;;;20.11;79.59;100839.22;5012511;28;20192;-73
2022/10/17 10:04:53;;;;;;;0.10;0.10;;;;;;;19.99;78.88;100842.16;5012486;28;20210;-73
2022/10/17 10:07:19;;;;;;;0.17;0.17;;;;;;;20.04;78.71;100836.28;5012359;28;20183;-71
2022/10/17 10:09:47;;;;;;;0.00;0.00;;;;;;;20.03;78.85;100850.53;5012687;28;20164;-71
2022/10/17 10:12:20;;;;;;;0.00;0.00;;;;;;;19.99;79.26;100850.47;5011617;28;20271;-71
2022/10/17 10:14:45;;;;;;;0.00;0.00;;;;;;;19.97;79.45;100843.69;5012456;28;20183;-71
2022/10/17 10:17:40;;;;;;;0.00;0.00;;;;;;;20.00;79.25;100849.31;5012392;28;20173;-71
2022/10/17 10:20:32;;;;;;;0.00;0.00;;;;;;;20.08;79.05;100844.69;5024881;28;20204;-71
2022/10/17 10:23:16;;;;;;;0.00;0.00;;;;;;;20.18;78.37;100833.81;5023894;28;20310;-71
2022/10/17 10:26:17;;;;;;;1.90;1.63;;;;;;;20.29;78.04;100833.22;5031982;28;20239;-71
2022/10/17 10:28:51;;;;;;;1.50;1.40;;;;;;;20.38;77.37;100850.41;5012998;28;20203;-71
2022/10/17 10:31:25;;;;;;;1.00;0.50;;;;;;;20.39;77.59;100838.94;5032016;28;20160;-71
2022/10/17 10:33:51;;;;;;;6.87;0.60;;;;;;;20.57;77.81;100844.88;5031906;28;20160;-72
2022/10/17 10:36:16;;;;;;;0.70;0.33;;;;;;;20.69;76.70;100850.25;5031717;28;20643;-73
2022/10/17 10:38:52;;;;;;;0.97;0.53;;;;;;;20.82;75.93;100850.03;5032635;28;20168;-72
2022/10/17 10:41:17;;;;;;;3.43;0.83;;;;;;;20.88;75.03;100852.16;5031692;28;20176;-72
2022/10/17 10:43:46;;;;;;;0.00;0.00;;;;;;;20.94;74.36;100850.66;5031821;28;20203;-73
2022/10/17 10:46:18;;;;;;;0.23;0.23;;;;;;;21.05;74.41;100846.06;5030960;28;20251;-72
2022/10/17 10:48:59;;;;;;;0.00;0.00;;;;;;;21.06;73.69;100842.13;5031633;28;20168;-72
2022/10/17 10:51:46;;;;;;;0.40;0.40;;;;;;;21.13;73.21;100841.44;5031621;28;20386;-73
2022/10/17 10:54:29;;;;;;;1.93;1.40;;;;;;;21.16;72.13;100856.56;5031452;28;20173;-72
2022/10/17 10:56:58;;;;;;;4.17;0.93;;;;;;;21.28;72.99;100871.09;5031291;28;20260;-73
2022/10/17 10:59:50;;;;;;;4.93;1.57;;;;;;;21.41;72.69;100876.41;5031295;28;20183;-72
2022/10/17 11:02:43;;;;;;;2.93;0.77;;;;;;;21.47;71.75;100869.38;5031337;28;20207;-72
2022/10/17 11:05:31;;;;;;;0.67;0.67;;;;;;;21.50;71.58;100868.63;5031456;28;20574;-72
2022/10/17 11:08:10;;;;;;;1.83;1.10;;;;;;;21.46;71.13;100878.91;5025591;28;20184;-73
2022/10/17 11:11:17;;;;;;;0.33;0.33;;;;;;;21.48;71.55;100871.78;5008820;28;20589;-72
2022/10/17 11:13:49;;;;;;;0.30;0.30;;;;;;;21.60;71.62;100879.91;4993682;28;20545;-72
2022/10/17 11:16:26;;;;;;;0.00;0.00;;;;;;;21.69;71.46;100885.16;5007910;28;20636;-72
2022/10/17 11:19:03;;;;;;;3.27;0.80;;;;;;;21.75;71.09;100883.69;5030986;28;20175;-73
2022/10/17 11:21:47;;;;;;;0.20;0.20;;;;;;;21.70;70.84;100870.13;5031052;28;20246;-73
2022/10/17 11:24:23;;;;;;;0.43;0.43;;;;;;;21.91;70.95;100877.94;5013296;28;20247;-72
2022/10/17 11:26:59;;;;;;;0.67;0.67;;;;;;;22.09;70.28;100876.19;5030823;28;20173;-73
2022/10/17 11:29:31;;;;;;;1.23;0.77;;;;;;;22.20;70.49;100877.13;5030959;28;20205;-73
2022/10/17 11:32:02;;;;;;;14.73;1.90;;;;;;;22.19;68.62;100860.81;5031014;28;20186;-73